sensor_id;sensor_type;location;lat;lon;timestamp;P1;durP1;ratioP1;P2;durP2;ratioP2
19260;SDS011;9764;48.114;11.670;2022-08-21T00:01:51;5.43;;;1.20;;
19260;SDS011;9764;48.114;11.670;2022-08-21T00:04:22;1.67;;;0.90;;
19260;SDS011;9764;48.114;11.670;2022-08-21T00:06:55;1.90;;;1.10;;
19260;SDS011;9764;48.114;11.670;2022-08-21T00:09:25;2.47;;;0.95;;
19260;SDS011;9764;48.114;11.670;2022-08-21T00:11:53;1.33;;;1.00;;
19260;SDS011;9764;48.114;11.670;2022-08-21T00:14:22;1.73;;;1.02;;
19260;SDS011;9764;48.114;11.670;2022-08-21T00:16:50;2.88;;;0.90;;
19260;SDS011;9764;48.114;11.670;2022-08-21T00:19:27;3.30;;;1.25;;
19260;SDS011;9764;48.114;11.670;2022-08-21T00:21:56;3.03;;;1.08;;
19260;SDS011;9764;48.114;11.670;2022-08-21T00:24:25;1.73;;;1.05;;
19260;SDS011;9764;48.114;11.670;2022-08-21T00:26:54;1.45;;;1.10;;
19260;SDS011;9764;48.114;11.670;2022-08-21T00:29:23;0.88;;;0.80;;
19260;SDS011;9764;48.114;11.670;2022-08-21T00:31:51;2.42;;;1.17;;
19260;SDS011;9764;48.114;11.670;2022-08-21T00:34:20;2.25;;;0.90;;
19260;SDS011;9764;48.114;11.670;2022-08-21T00:36:50;4.38;;;1.20;;
19260;SDS011;9764;48.114;11.670;2022-08-21T00:39:18;1.17;;;1.08;;
19260;SDS011;9764;48.114;11.670;2022-08-21T00:41:47;1.23;;;0.95;;
19260;SDS011;9764;48.114;11.670;2022-08-21T00:44:15;2.15;;;0.95;;
19260;SDS011;9764;48.114;11.670;2022-08-21T00:46:44;1.80;;;1.00;;
19260;SDS011;9764;48.114;11.670;2022-08-21T00:49:13;2.65;;;0.90;;
19260;SDS011;9764;48.114;11.670;2022-08-21T00:51:43;2.28;;;1.15;;
19260;SDS011;9764;48.114;11.670;2022-08-21T00:54:17;3.00;;;1.10;;
19260;SDS011;9764;48.114;11.670;2022-08-21T00:56:48;2.05;;;1.00;;
19260;SDS011;9764;48.114;11.670;2022-08-21T00:59:18;1.05;;;0.90;;
19260;SDS011;9764;48.114;11.670;2022-08-21T01:01:47;2.03;;;0.90;;
19260;SDS011;9764;48.114;11.670;2022-08-21T01:04:16;1.08;;;0.95;;
19260;SDS011;9764;48.114;11.670;2022-08-21T01:06:44;1.50;;;1.02;;
19260;SDS011;9764;48.114;11.670;2022-08-21T01:09:13;1.48;;;1.00;;
19260;SDS011;9764;48.114;11.670;2022-08-21T01:11:43;1.75;;;1.15;;
19260;SDS011;9764;48.114;11.670;2022-08-21T01:14:12;1.77;;;0.80;;
19260;SDS011;9764;48.114;11.670;2022-08-21T01:16:42;2.15;;;0.80;;
19260;SDS011;9764;48.114;11.670;2022-08-21T01:19:12;3.20;;;1.00;;
19260;SDS011;9764;48.114;11.670;2022-08-21T01:21:42;2.47;;;0.80;;
19260;SDS011;9764;48.114;11.670;2022-08-21T01:24:11;2.15;;;1.00;;
19260;SDS011;9764;48.114;11.670;2022-08-21T01:26:40;3.22;;;1.10;;
19260;SDS011;9764;48.114;11.670;2022-08-21T01:29:12;4.07;;;0.88;;
19260;SDS011;9764;48.114;11.670;2022-08-21T01:31:41;2.38;;;0.93;;
19260;SDS011;9764;48.114;11.670;2022-08-21T01:34:10;1.10;;;0.90;;
19260;SDS011;9764;48.114;11.670;2022-08-21T01:36:39;2.05;;;0.98;;
19260;SDS011;9764;48.114;11.670;2022-08-21T01:39:09;0.82;;;0.80;;
19260;SDS011;9764;48.114;11.670;2022-08-21T01:41:38;2.03;;;0.88;;
19260;SDS011;9764;48.114;11.670;2022-08-21T01:44:06;1.20;;;1.10;;
19260;SDS011;9764;48.114;11.670;2022-08-21T01:46:35;3.53;;;0.85;;
19260;SDS011;9764;48.114;11.670;2022-08-21T01:49:03;0.70;;;0.60;;
19260;SDS011;9764;48.114;11.670;2022-08-21T01:51:32;1.95;;;0.90;;
19260;SDS011;9764;48.114;11.670;2022-08-21T01:54:01;1.50;;;0.93;;
19260;SDS011;9764;48.114;11.670;2022-08-21T01:56:31;2.92;;;1.15;;
19260;SDS011;9764;48.114;11.670;2022-08-21T01:59:03;2.15;;;0.90;;
19260;SDS011;9764;48.114;11.670;2022-08-21T02:01:32;2.97;;;1.30;;
19260;SDS011;9764;48.114;11.670;2022-08-21T02:04:00;1.98;;;0.90;;
19260;SDS011;9764;48.114;11.670;2022-08-21T02:06:29;1.92;;;0.95;;
19260;SDS011;9764;48.114;11.670;2022-08-21T02:08:58;2.85;;;1.00;;
19260;SDS011;9764;48.114;11.670;2022-08-21T02:11:26;2.42;;;0.90;;
19260;SDS011;9764;48.114;11.670;2022-08-21T02:13:56;1.83;;;0.88;;
19260;SDS011;9764;48.114;11.670;2022-08-21T02:16:25;2.08;;;1.13;;
19260;SDS011;9764;48.114;11.670;2022-08-21T02:18:58;2.53;;;0.88;;
19260;SDS011;9764;48.114;11.670;2022-08-21T02:21:27;2.22;;;0.85;;
19260;SDS011;9764;48.114;11.670;2022-08-21T02:23:55;2.50;;;1.17;;
19260;SDS011;9764;48.114;11.670;2022-08-21T02:26:24;1.05;;;0.80;;
19260;SDS011;9764;48.114;11.670;2022-08-21T02:28:53;1.77;;;1.00;;
19260;SDS011;9764;48.114;11.670;2022-08-21T02:31:23;1.35;;;0.90;;
19260;SDS011;9764;48.114;11.670;2022-08-21T02:33:52;0.90;;;0.90;;
19260;SDS011;9764;48.114;11.670;2022-08-21T02:36:22;2.17;;;1.00;;
19260;SDS011;9764;48.114;11.670;2022-08-21T02:38:50;1.40;;;0.98;;
19260;SDS011;9764;48.114;11.670;2022-08-21T02:41:20;2.83;;;1.15;;
19260;SDS011;9764;48.114;11.670;2022-08-21T02:43:49;2.30;;;0.93;;
19260;SDS011;9764;48.114;11.670;2022-08-21T02:46:18;1.70;;;0.88;;
19260;SDS011;9764;48.114;11.670;2022-08-21T02:48:49;2.60;;;0.90;;
19260;SDS011;9764;48.114;11.670;2022-08-21T02:51:18;1.00;;;0.90;;
19260;SDS011;9764;48.114;11.670;2022-08-21T02:53:49;1.60;;;1.00;;
19260;SDS011;9764;48.114;11.670;2022-08-21T02:56:19;1.40;;;1.02;;
19260;SDS011;9764;48.114;11.670;2022-08-21T02:58:48;2.20;;;0.90;;
19260;SDS011;9764;48.114;11.670;2022-08-21T03:01:19;2.45;;;0.98;;
19260;SDS011;9764;48.114;11.670;2022-08-21T03:03:50;1.73;;;1.10;;
19260;SDS011;9764;48.114;11.670;2022-08-21T03:06:20;2.35;;;1.23;;
19260;SDS011;9764;48.114;11.670;2022-08-21T03:08:49;1.88;;;0.80;;
19260;SDS011;9764;48.114;11.670;2022-08-21T03:11:17;1.52;;;0.90;;
19260;SDS011;9764;48.114;11.670;2022-08-21T03:13:47;3.20;;;1.33;;
19260;SDS011;9764;48.114;11.670;2022-08-21T03:16:16;1.50;;;1.00;;
19260;SDS011;9764;48.114;11.670;2022-08-21T03:18:46;1.27;;;0.70;;
19260;SDS011;9764;48.114;11.670;2022-08-21T03:21:15;2.67;;;1.00;;
19260;SDS011;9764;48.114;11.670;2022-08-21T03:23:45;2.38;;;0.90;;
19260;SDS011;9764;48.114;11.670;2022-08-21T03:26:14;2.35;;;1.13;;
19260;SDS011;9764;48.114;11.670;2022-08-21T03:28:45;0.88;;;0.85;;
19260;SDS011;9764;48.114;11.670;2022-08-21T03:31:14;2.05;;;1.00;;
19260;SDS011;9764;48.114;11.670;2022-08-21T03:33:43;0.90;;;0.80;;
19260;SDS011;9764;48.114;11.670;2022-08-21T03:36:12;1.17;;;1.00;;
19260;SDS011;9764;48.114;11.670;2022-08-21T03:38:42;4.65;;;1.10;;
19260;SDS011;9764;48.114;11.670;2022-08-21T03:41:11;3.45;;;1.17;;
19260;SDS011;9764;48.114;11.670;2022-08-21T03:43:40;5.00;;;1.10;;
19260;SDS011;9764;48.114;11.670;2022-08-21T03:46:08;4.28;;;1.00;;
19260;SDS011;9764;48.114;11.670;2022-08-21T03:48:38;3.72;;;1.10;;
19260;SDS011;9764;48.114;11.670;2022-08-21T03:51:07;3.33;;;1.10;;
19260;SDS011;9764;48.114;11.670;2022-08-21T03:53:35;4.03;;;1.13;;
19260;SDS011;9764;48.114;11.670;2022-08-21T03:56:06;4.30;;;0.98;;
19260;SDS011;9764;48.114;11.670;2022-08-21T03:58:34;2.08;;;1.00;;
19260;SDS011;9764;48.114;11.670;2022-08-21T04:01:04;2.33;;;1.00;;
19260;SDS011;9764;48.114;11.670;2022-08-21T04:03:34;1.90;;;0.93;;
19260;SDS011;9764;48.114;11.670;2022-08-21T04:06:03;4.60;;;1.05;;
19260;SDS011;9764;48.114;11.670;2022-08-21T04:08:32;0.80;;;0.80;;
19260;SDS011;9764;48.114;11.670;2022-08-21T04:11:01;1.08;;;0.95;;
19260;SDS011;9764;48.114;11.670;2022-08-21T04:13:31;2.45;;;0.90;;
19260;SDS011;9764;48.114;11.670;2022-08-21T04:16:08;2.33;;;0.63;;
19260;SDS011;9764;48.114;11.670;2022-08-21T04:18:37;2.22;;;0.88;;
19260;SDS011;9764;48.114;11.670;2022-08-21T04:21:05;1.83;;;1.10;;
19260;SDS011;9764;48.114;11.670;2022-08-21T04:23:36;4.82;;;1.00;;
19260;SDS011;9764;48.114;11.670;2022-08-21T04:26:05;2.30;;;0.77;;
19260;SDS011;9764;48.114;11.670;2022-08-21T04:28:35;1.20;;;0.90;;
19260;SDS011;9764;48.114;11.670;2022-08-21T04:31:04;3.53;;;0.80;;
19260;SDS011;9764;48.114;11.670;2022-08-21T04:33:33;2.38;;;1.10;;
19260;SDS011;9764;48.114;11.670;2022-08-21T04:36:02;3.30;;;1.08;;
19260;SDS011;9764;48.114;11.670;2022-08-21T04:38:30;1.50;;;0.93;;
19260;SDS011;9764;48.114;11.670;2022-08-21T04:41:03;1.60;;;0.90;;
19260;SDS011;9764;48.114;11.670;2022-08-21T04:43:32;1.98;;;0.85;;
19260;SDS011;9764;48.114;11.670;2022-08-21T04:46:02;4.05;;;0.80;;
19260;SDS011;9764;48.114;11.670;2022-08-21T04:48:32;3.33;;;1.08;;
19260;SDS011;9764;48.114;11.670;2022-08-21T04:51:01;0.98;;;0.80;;
19260;SDS011;9764;48.114;11.670;2022-08-21T04:53:32;3.03;;;1.08;;
19260;SDS011;9764;48.114;11.670;2022-08-21T04:56:03;0.80;;;0.80;;
19260;SDS011;9764;48.114;11.670;2022-08-21T04:58:35;1.85;;;0.80;;
19260;SDS011;9764;48.114;11.670;2022-08-21T05:01:07;1.00;;;0.90;;
19260;SDS011;9764;48.114;11.670;2022-08-21T05:03:36;2.15;;;0.90;;
19260;SDS011;9764;48.114;11.670;2022-08-21T05:06:08;1.60;;;0.90;;
19260;SDS011;9764;48.114;11.670;2022-08-21T05:08:38;1.33;;;0.80;;
19260;SDS011;9764;48.114;11.670;2022-08-21T05:11:08;0.98;;;0.85;;
19260;SDS011;9764;48.114;11.670;2022-08-21T05:13:37;1.50;;;1.05;;
19260;SDS011;9764;48.114;11.670;2022-08-21T05:16:08;1.80;;;0.90;;
19260;SDS011;9764;48.114;11.670;2022-08-21T05:18:37;1.50;;;1.10;;
19260;SDS011;9764;48.114;11.670;2022-08-21T05:21:06;1.30;;;0.88;;
19260;SDS011;9764;48.114;11.670;2022-08-21T05:23:35;4.63;;;0.90;;
19260;SDS011;9764;48.114;11.670;2022-08-21T05:26:03;1.60;;;1.10;;
19260;SDS011;9764;48.114;11.670;2022-08-21T05:28:43;2.60;;;1.00;;
19260;SDS011;9764;48.114;11.670;2022-08-21T05:31:13;2.20;;;0.82;;
19260;SDS011;9764;48.114;11.670;2022-08-21T05:33:42;1.00;;;0.90;;
19260;SDS011;9764;48.114;11.670;2022-08-21T05:36:10;1.75;;;0.90;;
19260;SDS011;9764;48.114;11.670;2022-08-21T05:38:39;7.05;;;1.20;;
19260;SDS011;9764;48.114;11.670;2022-08-21T05:41:08;3.08;;;1.25;;
19260;SDS011;9764;48.114;11.670;2022-08-21T05:43:36;5.07;;;1.52;;
19260;SDS011;9764;48.114;11.670;2022-08-21T05:46:06;1.90;;;0.93;;
19260;SDS011;9764;48.114;11.670;2022-08-21T05:48:36;2.33;;;0.80;;
19260;SDS011;9764;48.114;11.670;2022-08-21T05:51:05;1.58;;;1.00;;
19260;SDS011;9764;48.114;11.670;2022-08-21T05:53:35;3.13;;;1.05;;
19260;SDS011;9764;48.114;11.670;2022-08-21T05:56:03;1.42;;;0.90;;
19260;SDS011;9764;48.114;11.670;2022-08-21T05:58:33;2.63;;;1.05;;
19260;SDS011;9764;48.114;11.670;2022-08-21T06:01:02;2.65;;;1.25;;
19260;SDS011;9764;48.114;11.670;2022-08-21T06:03:32;1.20;;;0.90;;
19260;SDS011;9764;48.114;11.670;2022-08-21T06:06:02;1.35;;;0.82;;
19260;SDS011;9764;48.114;11.670;2022-08-21T06:08:30;1.92;;;1.23;;
19260;SDS011;9764;48.114;11.670;2022-08-21T06:10:59;1.60;;;1.00;;
19260;SDS011;9764;48.114;11.670;2022-08-21T06:13:29;2.47;;;1.20;;
19260;SDS011;9764;48.114;11.670;2022-08-21T06:16:01;1.98;;;1.20;;
19260;SDS011;9764;48.114;11.670;2022-08-21T06:18:30;2.45;;;1.10;;
19260;SDS011;9764;48.114;11.670;2022-08-21T06:20:59;3.05;;;1.15;;
19260;SDS011;9764;48.114;11.670;2022-08-21T06:23:29;2.03;;;1.17;;
19260;SDS011;9764;48.114;11.670;2022-08-21T06:25:59;2.80;;;1.45;;
19260;SDS011;9764;48.114;11.670;2022-08-21T06:28:27;1.48;;;1.20;;
19260;SDS011;9764;48.114;11.670;2022-08-21T06:30:56;2.05;;;0.85;;
19260;SDS011;9764;48.114;11.670;2022-08-21T06:33:25;2.05;;;1.20;;
19260;SDS011;9764;48.114;11.670;2022-08-21T06:35:58;1.85;;;1.17;;
19260;SDS011;9764;48.114;11.670;2022-08-21T06:38:27;2.33;;;1.10;;
19260;SDS011;9764;48.114;11.670;2022-08-21T06:40:58;2.97;;;1.30;;
19260;SDS011;9764;48.114;11.670;2022-08-21T06:43:29;2.80;;;1.33;;
19260;SDS011;9764;48.114;11.670;2022-08-21T06:46:05;2.55;;;1.40;;
19260;SDS011;9764;48.114;11.670;2022-08-21T06:48:34;1.65;;;1.02;;
19260;SDS011;9764;48.114;11.670;2022-08-21T06:51:03;1.60;;;1.27;;
19260;SDS011;9764;48.114;11.670;2022-08-21T06:53:32;1.52;;;1.08;;
19260;SDS011;9764;48.114;11.670;2022-08-21T06:56:02;2.17;;;1.27;;
19260;SDS011;9764;48.114;11.670;2022-08-21T06:58:31;1.10;;;1.00;;
19260;SDS011;9764;48.114;11.670;2022-08-21T07:00:59;2.78;;;0.98;;
19260;SDS011;9764;48.114;11.670;2022-08-21T07:03:30;2.85;;;1.20;;
19260;SDS011;9764;48.114;11.670;2022-08-21T07:05:59;1.77;;;1.20;;
19260;SDS011;9764;48.114;11.670;2022-08-21T07:08:27;1.98;;;1.00;;
19260;SDS011;9764;48.114;11.670;2022-08-21T07:10:57;1.17;;;1.08;;
19260;SDS011;9764;48.114;11.670;2022-08-21T07:13:27;2.90;;;1.05;;
19260;SDS011;9764;48.114;11.670;2022-08-21T07:15:56;2.60;;;1.23;;
19260;SDS011;9764;48.114;11.670;2022-08-21T07:18:29;1.33;;;1.00;;
19260;SDS011;9764;48.114;11.670;2022-08-21T07:20:58;1.95;;;1.08;;
19260;SDS011;9764;48.114;11.670;2022-08-21T07:23:30;1.83;;;1.10;;
19260;SDS011;9764;48.114;11.670;2022-08-21T07:25:59;1.33;;;1.10;;
19260;SDS011;9764;48.114;11.670;2022-08-21T07:28:29;2.58;;;0.95;;
19260;SDS011;9764;48.114;11.670;2022-08-21T07:30:58;2.33;;;1.20;;
19260;SDS011;9764;48.114;11.670;2022-08-21T07:33:28;1.90;;;1.10;;
19260;SDS011;9764;48.114;11.670;2022-08-21T07:35:57;1.45;;;1.15;;
19260;SDS011;9764;48.114;11.670;2022-08-21T07:38:26;1.63;;;1.27;;
19260;SDS011;9764;48.114;11.670;2022-08-21T07:40:55;2.65;;;1.23;;
19260;SDS011;9764;48.114;11.670;2022-08-21T07:43:25;1.35;;;1.13;;
19260;SDS011;9764;48.114;11.670;2022-08-21T07:45:55;2.25;;;1.23;;
19260;SDS011;9764;48.114;11.670;2022-08-21T07:48:24;2.42;;;1.20;;
19260;SDS011;9764;48.114;11.670;2022-08-21T07:50:52;3.83;;;1.38;;
19260;SDS011;9764;48.114;11.670;2022-08-21T07:53:22;2.35;;;1.20;;
19260;SDS011;9764;48.114;11.670;2022-08-21T07:55:50;4.72;;;1.40;;
19260;SDS011;9764;48.114;11.670;2022-08-21T07:58:19;1.52;;;1.10;;
19260;SDS011;9764;48.114;11.670;2022-08-21T08:00:47;3.75;;;1.15;;
19260;SDS011;9764;48.114;11.670;2022-08-21T08:03:17;4.32;;;1.63;;
19260;SDS011;9764;48.114;11.670;2022-08-21T08:05:54;3.92;;;1.70;;
19260;SDS011;9764;48.114;11.670;2022-08-21T08:08:23;2.08;;;1.13;;
19260;SDS011;9764;48.114;11.670;2022-08-21T08:10:52;2.65;;;1.40;;
19260;SDS011;9764;48.114;11.670;2022-08-21T08:13:21;3.13;;;1.55;;
19260;SDS011;9764;48.114;11.670;2022-08-21T08:15:49;4.90;;;1.50;;
19260;SDS011;9764;48.114;11.670;2022-08-21T08:18:19;3.80;;;1.67;;
19260;SDS011;9764;48.114;11.670;2022-08-21T08:20:48;3.13;;;1.20;;
19260;SDS011;9764;48.114;11.670;2022-08-21T08:23:16;2.70;;;1.50;;
19260;SDS011;9764;48.114;11.670;2022-08-21T08:25:45;3.42;;;1.30;;
19260;SDS011;9764;48.114;11.670;2022-08-21T08:28:14;2.75;;;1.52;;
19260;SDS011;9764;48.114;11.670;2022-08-21T08:30:43;2.92;;;1.40;;
19260;SDS011;9764;48.114;11.670;2022-08-21T08:33:12;2.97;;;1.60;;
19260;SDS011;9764;48.114;11.670;2022-08-21T08:35:42;3.30;;;1.95;;
19260;SDS011;9764;48.114;11.670;2022-08-21T08:38:14;1.73;;;1.60;;
19260;SDS011;9764;48.114;11.670;2022-08-21T08:40:51;3.53;;;1.88;;
19260;SDS011;9764;48.114;11.670;2022-08-21T08:43:21;3.70;;;1.70;;
19260;SDS011;9764;48.114;11.670;2022-08-21T08:45:50;2.35;;;1.52;;
19260;SDS011;9764;48.114;11.670;2022-08-21T08:51:06;2.63;;;1.70;;
19260;SDS011;9764;48.114;11.670;2022-08-21T08:53:37;2.72;;;1.60;;
19260;SDS011;9764;48.114;11.670;2022-08-21T08:56:10;2.47;;;1.90;;
19260;SDS011;9764;48.114;11.670;2022-08-21T08:58:39;2.47;;;2.03;;
19260;SDS011;9764;48.114;11.670;2022-08-21T09:01:11;3.75;;;1.80;;
19260;SDS011;9764;48.114;11.670;2022-08-21T09:03:42;2.65;;;2.03;;
19260;SDS011;9764;48.114;11.670;2022-08-21T09:06:20;4.47;;;2.53;;
19260;SDS011;9764;48.114;11.670;2022-08-21T09:09:01;4.32;;;2.22;;
19260;SDS011;9764;48.114;11.670;2022-08-21T09:11:32;5.50;;;2.50;;
19260;SDS011;9764;48.114;11.670;2022-08-21T09:14:05;3.95;;;3.00;;
19260;SDS011;9764;48.114;11.670;2022-08-21T09:16:39;4.07;;;2.25;;
19260;SDS011;9764;48.114;11.670;2022-08-21T09:19:11;4.50;;;3.10;;
19260;SDS011;9764;48.114;11.670;2022-08-21T09:21:53;4.72;;;2.78;;
19260;SDS011;9764;48.114;11.670;2022-08-21T09:24:28;5.32;;;2.97;;
19260;SDS011;9764;48.114;11.670;2022-08-21T09:27:00;4.03;;;2.60;;
19260;SDS011;9764;48.114;11.670;2022-08-21T09:29:31;3.08;;;2.10;;
19260;SDS011;9764;48.114;11.670;2022-08-21T09:32:02;3.25;;;2.38;;
19260;SDS011;9764;48.114;11.670;2022-08-21T09:34:31;3.47;;;2.50;;
19260;SDS011;9764;48.114;11.670;2022-08-21T09:37:01;2.38;;;2.15;;
19260;SDS011;9764;48.114;11.670;2022-08-21T09:39:31;2.58;;;1.90;;
19260;SDS011;9764;48.114;11.670;2022-08-21T09:42:07;2.47;;;1.92;;
19260;SDS011;9764;48.114;11.670;2022-08-21T09:44:39;3.05;;;2.20;;
19260;SDS011;9764;48.114;11.670;2022-08-21T09:47:10;4.55;;;2.10;;
19260;SDS011;9764;48.114;11.670;2022-08-21T09:49:40;3.13;;;2.20;;
19260;SDS011;9764;48.114;11.670;2022-08-21T09:52:15;3.13;;;2.25;;
19260;SDS011;9764;48.114;11.670;2022-08-21T09:54:44;3.72;;;2.22;;
19260;SDS011;9764;48.114;11.670;2022-08-21T09:57:14;4.05;;;2.40;;
19260;SDS011;9764;48.114;11.670;2022-08-21T10:00:08;2.88;;;1.95;;
19260;SDS011;9764;48.114;11.670;2022-08-21T10:02:37;4.35;;;2.47;;
19260;SDS011;9764;48.114;11.670;2022-08-21T10:05:07;3.05;;;2.10;;
19260;SDS011;9764;48.114;11.670;2022-08-21T10:07:38;4.30;;;1.88;;
19260;SDS011;9764;48.114;11.670;2022-08-21T10:10:07;3.60;;;2.22;;
19260;SDS011;9764;48.114;11.670;2022-08-21T10:12:40;5.43;;;2.30;;
19260;SDS011;9764;48.114;11.670;2022-08-21T10:15:12;3.03;;;2.20;;
19260;SDS011;9764;48.114;11.670;2022-08-21T10:17:43;5.35;;;2.45;;
19260;SDS011;9764;48.114;11.670;2022-08-21T10:20:14;3.60;;;2.38;;
19260;SDS011;9764;48.114;11.670;2022-08-21T10:22:48;3.65;;;2.30;;
19260;SDS011;9764;48.114;11.670;2022-08-21T10:25:21;4.65;;;2.15;;
19260;SDS011;9764;48.114;11.670;2022-08-21T10:27:54;3.80;;;2.50;;
19260;SDS011;9764;48.114;11.670;2022-08-21T10:30:28;2.70;;;2.28;;
19260;SDS011;9764;48.114;11.670;2022-08-21T10:33:02;5.43;;;2.42;;
19260;SDS011;9764;48.114;11.670;2022-08-21T10:35:35;4.07;;;2.30;;
19260;SDS011;9764;48.114;11.670;2022-08-21T10:38:29;4.78;;;2.40;;
19260;SDS011;9764;48.114;11.670;2022-08-21T10:41:24;2.53;;;2.03;;
19260;SDS011;9764;48.114;11.670;2022-08-21T10:43:57;3.58;;;1.98;;
19260;SDS011;9764;48.114;11.670;2022-08-21T10:46:34;3.90;;;2.83;;
19260;SDS011;9764;48.114;11.670;2022-08-21T10:49:08;4.45;;;2.72;;
19260;SDS011;9764;48.114;11.670;2022-08-21T10:51:40;3.05;;;2.03;;
19260;SDS011;9764;48.114;11.670;2022-08-21T10:54:12;3.33;;;2.10;;
19260;SDS011;9764;48.114;11.670;2022-08-21T10:56:49;2.22;;;1.95;;
19260;SDS011;9764;48.114;11.670;2022-08-21T10:59:23;3.13;;;2.25;;
19260;SDS011;9764;48.114;11.670;2022-08-21T11:01:54;4.43;;;2.63;;
19260;SDS011;9764;48.114;11.670;2022-08-21T11:04:26;3.95;;;2.30;;
19260;SDS011;9764;48.114;11.670;2022-08-21T11:07:16;3.85;;;2.28;;
19260;SDS011;9764;48.114;11.670;2022-08-21T11:09:48;3.92;;;1.95;;
19260;SDS011;9764;48.114;11.670;2022-08-21T11:12:19;2.95;;;2.10;;
19260;SDS011;9764;48.114;11.670;2022-08-21T11:14:53;2.03;;;1.77;;
19260;SDS011;9764;48.114;11.670;2022-08-21T11:17:24;4.22;;;2.70;;
19260;SDS011;9764;48.114;11.670;2022-08-21T11:19:59;4.63;;;2.38;;
19260;SDS011;9764;48.114;11.670;2022-08-21T11:22:33;4.20;;;2.47;;
19260;SDS011;9764;48.114;11.670;2022-08-21T11:25:06;2.55;;;2.00;;
19260;SDS011;9764;48.114;11.670;2022-08-21T11:27:36;3.50;;;2.40;;
19260;SDS011;9764;48.114;11.670;2022-08-21T11:30:07;2.97;;;2.10;;
19260;SDS011;9764;48.114;11.670;2022-08-21T11:32:41;3.25;;;2.03;;
19260;SDS011;9764;48.114;11.670;2022-08-21T11:35:13;5.18;;;2.10;;
19260;SDS011;9764;48.114;11.670;2022-08-21T11:37:47;2.92;;;2.60;;
19260;SDS011;9764;48.114;11.670;2022-08-21T11:40:24;2.72;;;2.03;;
19260;SDS011;9764;48.114;11.670;2022-08-21T11:42:55;5.18;;;1.90;;
19260;SDS011;9764;48.114;11.670;2022-08-21T11:45:30;2.97;;;2.38;;
19260;SDS011;9764;48.114;11.670;2022-08-21T11:48:03;3.35;;;2.22;;
19260;SDS011;9764;48.114;11.670;2022-08-21T11:50:35;2.83;;;2.13;;
19260;SDS011;9764;48.114;11.670;2022-08-21T11:53:08;3.17;;;2.40;;
19260;SDS011;9764;48.114;11.670;2022-08-21T11:55:41;3.47;;;2.08;;
19260;SDS011;9764;48.114;11.670;2022-08-21T11:58:11;2.50;;;1.90;;
19260;SDS011;9764;48.114;11.670;2022-08-21T12:00:43;3.17;;;1.90;;
19260;SDS011;9764;48.114;11.670;2022-08-21T12:03:14;2.45;;;2.13;;
19260;SDS011;9764;48.114;11.670;2022-08-21T12:05:45;3.33;;;2.17;;
19260;SDS011;9764;48.114;11.670;2022-08-21T12:08:15;4.70;;;2.80;;
19260;SDS011;9764;48.114;11.670;2022-08-21T12:11:01;2.72;;;2.28;;
19260;SDS011;9764;48.114;11.670;2022-08-21T12:13:31;6.78;;;4.85;;
19260;SDS011;9764;48.114;11.670;2022-08-21T12:16:08;9.75;;;7.20;;
19260;SDS011;9764;48.114;11.670;2022-08-21T12:18:36;8.90;;;5.38;;
19260;SDS011;9764;48.114;11.670;2022-08-21T12:21:16;8.88;;;5.75;;
19260;SDS011;9764;48.114;11.670;2022-08-21T12:23:47;5.22;;;4.68;;
19260;SDS011;9764;48.114;11.670;2022-08-21T12:26:20;6.43;;;4.13;;
19260;SDS011;9764;48.114;11.670;2022-08-21T12:28:51;5.65;;;3.90;;
19260;SDS011;9764;48.114;11.670;2022-08-21T12:31:30;5.78;;;2.80;;
19260;SDS011;9764;48.114;11.670;2022-08-21T12:33:59;4.78;;;3.00;;
19260;SDS011;9764;48.114;11.670;2022-08-21T12:36:38;4.22;;;2.70;;
19260;SDS011;9764;48.114;11.670;2022-08-21T12:39:11;4.40;;;2.47;;
19260;SDS011;9764;48.114;11.670;2022-08-21T12:41:45;4.20;;;3.10;;
19260;SDS011;9764;48.114;11.670;2022-08-21T12:44:15;3.33;;;2.67;;
19260;SDS011;9764;48.114;11.670;2022-08-21T12:46:45;3.45;;;2.30;;
19260;SDS011;9764;48.114;11.670;2022-08-21T12:49:15;4.05;;;2.17;;
19260;SDS011;9764;48.114;11.670;2022-08-21T12:51:55;3.38;;;2.05;;
19260;SDS011;9764;48.114;11.670;2022-08-21T12:54:26;3.65;;;2.00;;
19260;SDS011;9764;48.114;11.670;2022-08-21T12:56:58;5.15;;;2.30;;
19260;SDS011;9764;48.114;11.670;2022-08-21T12:59:27;5.03;;;2.55;;
19260;SDS011;9764;48.114;11.670;2022-08-21T13:01:56;3.55;;;3.25;;
19260;SDS011;9764;48.114;11.670;2022-08-21T13:04:27;4.90;;;2.95;;
19260;SDS011;9764;48.114;11.670;2022-08-21T13:06:59;3.92;;;3.15;;
19260;SDS011;9764;48.114;11.670;2022-08-21T13:09:28;3.45;;;2.92;;
19260;SDS011;9764;48.114;11.670;2022-08-21T13:11:59;2.97;;;2.30;;
19260;SDS011;9764;48.114;11.670;2022-08-21T13:14:28;5.03;;;2.40;;
19260;SDS011;9764;48.114;11.670;2022-08-21T13:16:58;3.00;;;2.33;;
19260;SDS011;9764;48.114;11.670;2022-08-21T13:19:28;3.15;;;2.17;;
19260;SDS011;9764;48.114;11.670;2022-08-21T13:21:58;3.30;;;2.13;;
19260;SDS011;9764;48.114;11.670;2022-08-21T13:24:30;2.88;;;2.10;;
19260;SDS011;9764;48.114;11.670;2022-08-21T13:27:19;4.25;;;2.40;;
19260;SDS011;9764;48.114;11.670;2022-08-21T13:29:48;3.20;;;2.15;;
19260;SDS011;9764;48.114;11.670;2022-08-21T13:32:28;3.22;;;2.10;;
19260;SDS011;9764;48.114;11.670;2022-08-21T13:34:58;2.40;;;2.20;;
19260;SDS011;9764;48.114;11.670;2022-08-21T13:37:27;3.00;;;1.80;;
19260;SDS011;9764;48.114;11.670;2022-08-21T13:39:56;2.15;;;1.80;;
19260;SDS011;9764;48.114;11.670;2022-08-21T13:42:26;4.07;;;2.17;;
19260;SDS011;9764;48.114;11.670;2022-08-21T13:44:55;3.25;;;2.25;;
19260;SDS011;9764;48.114;11.670;2022-08-21T13:47:23;2.33;;;1.67;;
19260;SDS011;9764;48.114;11.670;2022-08-21T13:49:52;2.40;;;1.80;;
19260;SDS011;9764;48.114;11.670;2022-08-21T13:52:26;2.42;;;1.88;;
19260;SDS011;9764;48.114;11.670;2022-08-21T13:54:56;3.28;;;2.05;;
19260;SDS011;9764;48.114;11.670;2022-08-21T13:57:27;2.20;;;1.83;;
19260;SDS011;9764;48.114;11.670;2022-08-21T14:00:09;2.17;;;1.83;;
19260;SDS011;9764;48.114;11.670;2022-08-21T14:02:38;2.92;;;1.75;;
19260;SDS011;9764;48.114;11.670;2022-08-21T14:05:13;3.15;;;1.80;;
19260;SDS011;9764;48.114;11.670;2022-08-21T14:07:43;2.53;;;2.00;;
19260;SDS011;9764;48.114;11.670;2022-08-21T14:10:14;3.22;;;1.95;;
19260;SDS011;9764;48.114;11.670;2022-08-21T14:12:47;1.80;;;1.55;;
19260;SDS011;9764;48.114;11.670;2022-08-21T14:15:18;3.13;;;1.98;;
19260;SDS011;9764;48.114;11.670;2022-08-21T14:17:47;2.45;;;2.00;;
19260;SDS011;9764;48.114;11.670;2022-08-21T14:20:25;2.33;;;1.90;;
19260;SDS011;9764;48.114;11.670;2022-08-21T14:22:53;1.90;;;1.70;;
19260;SDS011;9764;48.114;11.670;2022-08-21T14:25:30;4.03;;;2.13;;
19260;SDS011;9764;48.114;11.670;2022-08-21T14:28:05;2.85;;;1.90;;
19260;SDS011;9764;48.114;11.670;2022-08-21T14:30:42;2.03;;;1.60;;
19260;SDS011;9764;48.114;11.670;2022-08-21T14:33:11;2.67;;;1.60;;
19260;SDS011;9764;48.114;11.670;2022-08-21T14:35:40;2.53;;;1.73;;
19260;SDS011;9764;48.114;11.670;2022-08-21T14:38:13;2.67;;;1.88;;
19260;SDS011;9764;48.114;11.670;2022-08-21T14:40:41;2.78;;;1.50;;
19260;SDS011;9764;48.114;11.670;2022-08-21T14:43:12;3.15;;;1.90;;
19260;SDS011;9764;48.114;11.670;2022-08-21T14:45:40;2.50;;;1.92;;
19260;SDS011;9764;48.114;11.670;2022-08-21T14:48:10;3.75;;;1.75;;
19260;SDS011;9764;48.114;11.670;2022-08-21T14:50:39;3.65;;;1.90;;
19260;SDS011;9764;48.114;11.670;2022-08-21T14:53:08;2.30;;;1.75;;
19260;SDS011;9764;48.114;11.670;2022-08-21T14:55:37;2.22;;;1.65;;
19260;SDS011;9764;48.114;11.670;2022-08-21T14:58:21;3.25;;;1.70;;
19260;SDS011;9764;48.114;11.670;2022-08-21T15:00:51;2.20;;;1.60;;
19260;SDS011;9764;48.114;11.670;2022-08-21T15:03:20;2.72;;;1.80;;
19260;SDS011;9764;48.114;11.670;2022-08-21T15:05:49;3.13;;;1.60;;
19260;SDS011;9764;48.114;11.670;2022-08-21T15:08:17;2.83;;;1.77;;
19260;SDS011;9764;48.114;11.670;2022-08-21T15:10:46;2.85;;;1.73;;
19260;SDS011;9764;48.114;11.670;2022-08-21T15:13:36;3.63;;;1.90;;